André Teixeira

Recruteur en chef - Ceará
6 Janv 2028
Jeudi
Processus

Personnalité

Adaptabilité (7) Ambition (20) Controverse (10) Loyauté (4) Pression (6) Professionnalisme (18) Sportivité (18) Tempérament (6)

Profil

Style d'entraînement Démocratique
Diplôme Continental Pro
Détermination 10
Gestion des joueurs 9
Motivation 10
Discipline 4
Satisfaction professionnelle
100%
Fatigue
0%
Rôle Recruteur en chef
Salaire 93.9K p/s
Contrat 14.03.2028

Performance

Comportement Bon
Efficacité de l'entraînement
40%
Développement des joueurs
50%
Prévention des blessures
45%
Mise en place tactique
20%

Événements récents

Négociation de contrat entamée maintenant
A évalué un joueur maintenant
A participé à une réunion de recrutement maintenant
A recommandé une cible de transfert maintenant
A recommandé une cible de transfert maintenant
A recommandé une cible de transfert maintenant
A recommandé une cible de transfert maintenant
A recommandé une cible de transfert maintenant

Suivi en cours

342
Joueur Club Statut Capacité Confiance Observé Dernière observation Dernier vote
Louis Munteanu DC United Actif 136 / 118 40% 2 03.01.2028 -
Alejo Cruz Juventud Actif 124 / 115 40% 1 03.01.2028 -
Leandro Suhr Boston River Actif 128 / 117 40% 1 03.01.2028 -
Luan Boa Actif 107 / 106 65% 1 27.12.2027 Approuver
Nicolás Fernández Mercau Independiente Actif 134 / 134 67% 1 20.12.2027 Approuver
Mao Hosoya Everton Négociation 134 / 135 67% 1 01.12.2027 Approuver
Wessam Abou Ali Columbus Crew Actif 141 / 145 40% 2 30.11.2027 -
Eric Ramírez Llaneros Actif 112 / 106 40% 1 30.11.2027 -
Víctor Guzmán Sporting CP Actif 108 / 116 40% 4 24.11.2027 -
Maren Kefas Plateau United Actif 89 / 84 40% 8 24.11.2027 -
Santino Carrizo Chacarita Juniors Actif 89 / 88 40% 1 24.11.2027 -
André Miranda Porto Actif 112 / 108 40% 5 22.11.2027 -
Ruben Ramos LA Galaxy Actif 107 / 96 40% 4 22.11.2027 -
Abdulateef Yusuff Chikhura Actif 86 / 83 40% 3 22.11.2027 -
João Teixeira Porto Actif 124 / 126 40% 2 21.11.2027 -
Mateo Silvetti Los Angeles Football Club Actif 129 / 131 40% 3 21.11.2027 -
Santiago López Independiente Actif 115 / 123 40% 4 20.11.2027 -
Luis Vidal Deportivo Pereira Actif 89 / 84 40% 2 20.11.2027 -
Bruno Ribeiro Cortulua Actif 78 / 97 40% 2 20.11.2027 -
Mikkel Hope Haugesund Actif 113 / 112 40% 3 19.11.2027 -
Rio Ngumoha Stockport County Actif 149 / 160 40% 1 19.11.2027 -
Alex Amaefula Kun Khalifat Actif 80 / 95 40% 3 18.11.2027 -
Mads Bomholt Stabaek Actif 100 / 108 40% 2 18.11.2027 -
Dylan Cabral Arsenal Actif 98 / 97 40% 5 15.11.2027 -
Mateo Peralta Danubio Actif 120 / 127 40% 4 14.11.2027 -
Mustapha Umar Kano Pillars Actif 94 / 97 40% 4 14.11.2027 -
Sunday Aniebet Enyimba Actif 99 / 97 40% 2 14.11.2027 -
Musa Malik Ikorodu City Actif 82 / 89 40% 2 13.11.2027 -
Lucas Camejo River Plate Actif 87 / 89 40% 2 13.11.2027 -
Lion Beqiri Falkenberg Actif 86 / 118 40% 2 13.11.2027 -
Alfie James Ventforet Kofu Actif 90 / 87 40% 2 12.11.2027 -
Federico Coletta Benfica Actif 96 / 108 40% 1 12.11.2027 -
Brandon Álvarez Penarol Actif 86 / 101 40% 1 12.11.2027 -
Gonçalo Moreira Benfica Actif 133 / 131 40% 6 10.11.2027 -
Duarte Cunha Porto Actif 89 / 98 40% 1 10.11.2027 -
Hassan Beja AFC Leopards Actif 85 / 103 40% 4 09.11.2027 -
Joel Ezra Enyimba Actif 104 / 93 40% 5 09.11.2027 -
Kauã Moraes Cruzeiro Actif 133 / 138 40% 2 09.11.2027 -
Sebastian Olderheim Stabaek Actif 94 / 107 40% 1 06.11.2027 -
Mfundo Vilakazi Kaizer Chiefs Actif 127 / 119 40% 1 06.11.2027 -
Daniel Banjaqui Benfica Actif 111 / 134 40% 3 05.11.2027 -
Olívio Tomé Benfica Actif 118 / 118 40% 1 05.11.2027 -
Oscar Otero Atletico Venezuela Actif 104 / 113 40% 3 02.11.2027 -
Onuorah Onyedika Kun Khalifat Actif 84 / 97 40% 2 02.11.2027 -
Franco Minerva Platense Actif 119 / 116 40% 2 02.11.2027 -
Fredrik Ardraa Stromsgodset Actif 112 / 115 40% 1 01.11.2027 -
Bernardo Lima Porto Actif 94 / 120 40% 2 31.10.2027 -
Bop Guèye Haugesund Actif 118 / 122 40% 3 30.10.2027 -
Nicolas Sport Recife Actif 108 / 106 40% 1 30.10.2027 -
Luis Otávio Colorado Rapids Actif 105 / 108 40% 3 29.10.2027 -
Mateus Mide Porto Actif 97 / 109 40% 2 29.10.2027 -
Juan Camilo Córdoba Deportivo Pereira Actif 89 / 96 40% 1 29.10.2027 -
Samuel Posada Leones Actif 94 / 83 40% 1 28.10.2027 -
Olaniyi Saheed Kwara United Actif 96 / 104 40% 1 28.10.2027 -
André Lucas Sampaio Correa Actif 100 / 91 40% 1 28.10.2027 -
Hervin Goyes Deportivo Pasto Actif 107 / 106 40% 4 26.10.2027 -
Gift Udoh Ikorodu City Actif 88 / 85 40% 1 26.10.2027 -
Tobias Moi Bodo/Glimt Actif 94 / 129 40% 1 26.10.2027 -
Bahia Criciuma Actif 105 / 120 40% 3 25.10.2027 -
Daniel Costa Sporting CP Actif 106 / 102 40% 1 25.10.2027 -
Giovanni Leoni Bradford City Actif 146 / 146 40% 1 25.10.2027 -
Tiziano Cabrera Central Norte Actif 96 / 97 40% 2 23.10.2027 -
Matías Canedo Rampla Juniors Actif 78 / 96 40% 2 19.10.2027 -
Ethan Williams Peterborough United Actif 107 / 121 40% 2 18.10.2027 -
Archie Gray Derby County Actif 143 / 156 40% 1 18.10.2027 -
Ronan Kpakio Cardiff City Actif 133 / 134 40% 1 18.10.2027 -
Tiago Gordillo San Miguel Actif 89 / 91 40% 1 17.10.2027 -
João Fonseca Benfica Actif 111 / 120 40% 1 17.10.2027 -
Diogo Guzmán Montevideo City Torque Actif 123 / 107 40% 2 15.10.2027 -
Gabriel Mec Porto Actif 129 / 127 40% 1 15.10.2027 -
Juan Morán Godoy Cruz Actif 111 / 105 40% 1 15.10.2027 -
Hosea Michael Remo Stars Actif 78 / 81 40% 1 15.10.2027 -
Giovanni Baroni Talleres Actif 113 / 122 40% 3 13.10.2027 -
Joel Romero America de Cali Actif 110 / 112 40% 1 13.10.2027 -
Chinedu Nwosu Bendel Insurance Actif 77 / 110 40% 1 08.10.2027 -
Wisdom Udom Bendel Insurance Actif 79 / 77 40% 1 07.10.2027 -
Mikhail Alexandrov Dinamo Brest Actif 83 / 75 40% 1 04.10.2027 -
Gustavo Lozano Metropolitanos Actif 98 / 107 40% 1 29.09.2027 -
Sadiq Auwal Niger Tornadoes Actif 78 / 94 40% 2 24.09.2027 -
Noah Streit CF Montreal Actif 109 / 111 40% 3 14.09.2027 -
Juan Rodríguez Wanderers Actif 99 / 113 40% 2 14.09.2027 -
Figueiredo Sampaio Correa Actif 92 / 87 40% 1 14.09.2027 -
Mauro Carrizo Atlético Tucumán Actif 95 / 116 40% 1 14.09.2027 -
Adriangel Torrealba Llaneros Actif 71 / 87 40% 1 10.09.2027 -
Chimobi Igwilo Rangers International Actif 80 / 87 40% 1 03.09.2027 -
Tobi Ige Bendel Insurance Actif 94 / 90 40% 1 02.09.2027 -
Luke Baartman ES Mostaganem Actif 105 / 126 40% 2 29.08.2027 -
Manuel Kissanga Fortuna Mfou Actif 84 / 115 40% 1 27.08.2027 -
Lucas Duré Montevideo City Torque Actif 101 / 102 40% 1 26.08.2027 -
Ian Wisdom Sporting Cristal Actif 88 / 108 40% 1 26.08.2027 -
Ibrahim Sabiu Bendel Insurance Actif 90 / 78 40% 1 25.08.2027 -
Peter Amidu Acquah Asante Kotoko Actif 113 / 91 40% 2 22.08.2027 -
Fataho Nerie Berekum Chelsea Actif 66 / 78 40% 1 20.08.2027 -
Matías Gómez Granada Actif 126 / 142 40% 2 16.08.2027 -
Nhlanhla Gasa Binga Actif 79 / 100 40% 1 16.08.2027 -
Daniel Awuni Aduana Stars Actif 106 / 87 40% 1 14.08.2027 -
Sascha Britschgi Padova Actif 120 / 134 40% 2 13.08.2027 -
Lander Astiazarán Real Sociedad Actif 97 / 132 40% 1 13.08.2027 -
Mattia Rutigliano Pro Vercelli Actif 97 / 103 40% 1 10.08.2027 -
Kamarni Ryan Burton Albion Actif 92 / 100 40% 1 08.08.2027 -
João Abreu Porto Actif 105 / 110 40% 2 05.08.2027 -
Rafael Camacho Sporting CP Actif 107 / 96 40% 1 04.08.2027 -
Leo Castledine Middlesbrough Actif 134 / 150 40% 4 03.08.2027 -
Zaïd BafdilI Sporting CP Actif 94 / 95 40% 2 03.08.2027 -
Vasco Santos Oliveirense Actif 82 / 87 40% 1 19.07.2027 -
Hazeem Bakre Crawley Town Actif 93 / 80 40% 1 19.07.2027 -
Rayan Bournemouth Actif 135 / 128 40% 3 14.06.2027 -
Yuri Alberto Köln Actif 140 / 141 67% 1 01.06.2027 Approuver
Kaio Jorge Bayern Munich Actif 138 / 140 68% 1 01.06.2027 Approuver
Kyle Wootton Stockport County Actif 132 / 113 40% 1 31.05.2027 -
Lorent Tolaj Plymouth Argyle Actif 130 / 116 40% 1 31.05.2027 -
Iwan Morgan Grimsby Town Actif 98 / 130 40% 3 30.05.2027 -
Cameron Archer Southampton Actif 117 / 136 40% 1 30.05.2027 -
Santiago Pierotti Lecce Actif 125 / 135 40% 1 30.05.2027 -
Marezi Portsmouth Actif 121 / 133 40% 1 27.05.2027 -
Lorenzo Colombo Genoa Actif 145 / 138 40% 1 27.05.2027 -
Dávid Strelec Middlesbrough Actif 149 / 127 40% 2 26.05.2027 -
Lewis Morgan SuperSport United Actif 116 / 121 40% 2 26.05.2027 -
Jack Diamond Stockport County Actif 127 / 126 40% 1 25.05.2027 -
Tommy Conway Middlesbrough Actif 124 / 141 40% 1 25.05.2027 -
Will Lankshear Middlesbrough Actif 130 / 112 40% 2 24.05.2027 -
Armando Broja Burnley Actif 149 / 148 40% 1 23.05.2027 -
Ross Stewart Southampton Actif 139 / 115 40% 2 21.05.2027 -
Luis Vázquez Birmingham Actif 133 / 126 40% 2 20.05.2027 -
Morgan Whittaker Middlesbrough Actif 142 / 132 40% 2 19.05.2027 -
Dom Ballard Leyton Orient Actif 133 / 126 40% 4 18.05.2027 -
Mohamed-Ali Cho Hull City Actif 146 / 148 40% 2 16.05.2027 -
Aaron Collins Milton Keynes Dons Actif 107 / 102 40% 1 15.05.2027 -
Zeki Amdouni Burnley Actif 147 / 120 40% 1 13.05.2027 -
Gabriel Melo Dugopolje Actif 90 / 95 40% 3 12.05.2027 -
Derry Murkin Derby County Actif 131 / 118 40% 2 12.05.2027 -
Patson Daka Leicester City Actif 126 / 122 40% 1 12.05.2027 -
Ilyas Ansah Hull City Actif 120 / 119 40% 1 12.05.2027 -
Bali Mumba Huddersfield Town Actif 113 / 131 40% 1 08.05.2027 -
Finn Azaz Southampton Actif 121 / 119 40% 2 07.05.2027 -
Christos Mouzakitis Hull City Actif 121 / 130 40% 1 07.05.2027 -
Tom Cannon Sheffield United Actif 137 / 138 40% 1 04.05.2027 -
Davide Bartesaghi AC Milan Actif 139 / 141 40% 1 01.05.2027 -
Tyrese Campbell Sheffield United Actif 116 / 131 40% 1 29.04.2027 -
Ali Ahmed Norwich City Actif 114 / 126 40% 1 29.04.2027 -
Kwadwo Baah Watford Actif 133 / 119 40% 1 28.04.2027 -
Jack Rudoni Coventry City Actif 149 / 133 40% 2 27.04.2027 -
Richard Koné Queens Park Rangers Actif 117 / 139 40% 1 27.04.2027 -
Baba N'Diaye Chelyabinsk Actif 71 / 80 40% 1 27.04.2027 -
Adama Goïta Remo Stars Actif 88 / 87 40% 1 27.04.2027 -
Vinícius Lopes Santa Clara Actif 117 / 125 40% 6 25.04.2027 -
Jalen Blesa Rio Ave Actif 113 / 116 40% 4 25.04.2027 -
Monty Batlhabane Polokwane City Actif 93 / 101 40% 1 25.04.2027 -
Sidiki Chérif Coventry City Actif 122 / 132 40% 1 24.04.2027 -
Santi García Gil Vicente Actif 142 / 139 40% 4 21.04.2027 -
Lorenzo De Leo Renate Actif 89 / 118 40% 2 21.04.2027 -
Gianluca Prestianni Benfica Actif 143 / 123 40% 2 21.04.2027 -
Stanley Mills Oxford United Actif 120 / 124 40% 1 19.04.2027 -
Mario Dorgeles Braga Actif 129 / 151 40% 1 19.04.2027 -
Gustavo Silva Vitoria Guimaraes Actif 127 / 123 40% 3 17.04.2027 -
Toni Tamarit Alverca Actif 104 / 126 40% 2 15.04.2027 -
Welington Southampton Actif 137 / 128 40% 3 15.04.2027 -
Chineme Chinonso Ikorodu City Actif 104 / 81 40% 1 14.04.2027 -
Thomas Waddingham Portsmouth Actif 105 / 101 40% 1 14.04.2027 -
Martim Cunha Porto Actif 99 / 102 40% 1 10.04.2027 -
Bernardes Benfica Actif 97 / 88 40% 1 10.04.2027 -
Gabri Martínez Braga Actif 136 / 117 40% 2 08.04.2027 -
Jason Knight Bristol City Actif 142 / 133 40% 1 08.04.2027 -
Paulo Moreira Farense Actif 123 / 112 40% 2 07.04.2027 -
Víctor Gómez Braga Actif 136 / 122 40% 4 07.04.2027 -
Amaury Morales Pumas UNAM Actif 121 / 101 40% 1 07.04.2027 -
Francisco Moura Lusitânia Lourosa Actif 133 / 134 40% 3 05.04.2027 -
Miloš Jovičić Zabbar St. Patrick Actif 105 / 81 40% 1 03.04.2027 -
Kelian Baruti Liamba Estoril Praia Actif 94 / 112 40% 1 03.04.2027 -
Juan María Alcedo Torreense Actif 115 / 127 40% 1 03.04.2027 -
Daniel Júnior Nacional Actif 125 / 128 40% 1 02.04.2027 -
Luis Quintero Torreense Actif 122 / 118 40% 1 28.03.2027 -
Nabil Touaizi Alverca Actif 117 / 118 40% 3 27.03.2027 -
Caleb Yirenkyi Coventry City Actif 148 / 127 40% 1 27.03.2027 -
Lorougnon Gohi Académico de Viseu Actif 103 / 102 40% 6 25.03.2027 -
Manu Pozo Torreense Actif 108 / 121 40% 2 24.03.2027 -
Max Bird Birmingham Actif 133 / 148 40% 1 24.03.2027 -
Nicolás Castro Toluca Actif 137 / 119 40% 2 23.03.2027 -
João Mendes Vitoria Guimaraes Actif 134 / 126 40% 1 23.03.2027 -
Tshepang Moremi Orlando Pirates Actif 102 / 129 40% 1 22.03.2027 -
Ezequiel Bullaude Santos Laguna Actif 138 / 108 40% 1 20.03.2027 -
Figueiredo Alverca Actif 119 / 116 40% 6 19.03.2027 -
Mandla Erasmus SuperSport United Actif 110 / 108 40% 2 18.03.2027 -
Ricard Sánchez Estoril Praia Actif 114 / 107 40% 3 17.03.2027 -
Daniel Kyerewaa Reading Actif 119 / 121 40% 1 15.03.2027 -
Simo Maritimo Actif 117 / 125 40% 1 15.03.2027 -
Dinis Pinto Moreirense Actif 142 / 115 40% 1 13.03.2027 -
Lohann Doucet Vitoria Guimaraes Actif 117 / 128 40% 1 13.03.2027 -
Rocco Vata Watford Actif 110 / 119 40% 3 11.03.2027 -
Lee Hyun-Ju Arouca Actif 127 / 130 40% 2 10.03.2027 -
Iker Benito Queretaro Actif 135 / 108 40% 2 09.03.2027 -
Ole Pohlmann Rio Ave Actif 119 / 133 40% 4 07.03.2027 -
Martín Tejón Maritimo Actif 113 / 110 40% 1 07.03.2027 -
Julián Vignolo Toulouse FC Actif 119 / 126 40% 1 06.03.2027 -
Brenner Santa Clara Actif 115 / 122 40% 1 04.03.2027 -
Emi Rodriguez Leon Actif 125 / 107 40% 2 28.02.2027 -
Markus Jensen Nacional Actif 100 / 117 40% 3 27.02.2027 -
Facundo Cáseres Gil Vicente Actif 127 / 127 40% 1 27.02.2027 -
Alfonso Trezza Arouca Actif 116 / 119 40% 3 25.02.2027 -
Jovan Milošević Braga Actif 132 / 133 40% 2 25.02.2027 -
Miguel Baeza Nacional Actif 125 / 115 40% 1 25.02.2027 -
Dilan Neves Benfica Actif 70 / 95 40% 1 22.02.2027 -
Lwanda Mbanjwa Maritzburg United Actif 81 / 112 40% 1 22.02.2027 -
Tony Strata Vitoria Guimaraes Actif 112 / 129 40% 1 19.02.2027 -
Florentino Luís Ipswich Town Actif 146 / 128 40% 1 17.02.2027 -
Mathis Jangeal Famalicao Actif 83 / 94 40% 2 15.02.2027 -
Cristian Ferreira Académico de Viseu Actif 107 / 110 40% 1 15.02.2027 -
Naïs Djouahra Arouca Actif 129 / 128 40% 3 09.02.2027 -
Makan Aïko Tondela Actif 109 / 102 40% 1 08.02.2027 -
Ognjen Bondžulić Mladost Lucani Actif 88 / 99 40% 1 07.02.2027 -
Mateus Mané Manchester United Actif 144 / 122 40% 1 07.02.2027 Plus d'infos
Kélian Nsona Casa Pia Actif 115 / 103 40% 1 06.02.2027 -
Rodrigo Ramos Moreirense Actif 109 / 115 40% 2 04.02.2027 -
Matvii Ponomarenko Dynamo Kyiv Actif 125 / 108 40% 1 04.02.2027 -
Ozziel Herrera Tigres Actif 127 / 112 40% 1 01.02.2027 -
Darlvin Yeboah Bechem United Actif 70 / 86 40% 1 31.01.2027 -
Jordan Holsgrove Estoril Praia Actif 127 / 114 40% 1 30.01.2027 -
Marcelo Allende Mamelodi Sundowns Actif 148 / 141 40% 2 28.01.2027 -
Cian Ashford Cardiff City Actif 116 / 128 40% 2 28.01.2027 -
Henry Mosquera Bragantino Actif 127 / 139 40% 2 26.01.2027 -
Weverson Gil Vicente Actif 116 / 114 40% 1 25.01.2027 -
Kwame Poku Queens Park Rangers Actif 112 / 131 40% 1 24.01.2027 -
Rafik Guitane Estoril Praia Actif 137 / 138 40% 2 21.01.2027 -
Rodrigo Pinheiro Famalicao Actif 127 / 141 40% 1 21.01.2027 -
Deivid Washington RC Strasbourg Actif 100 / 106 40% 1 16.01.2027 -
Roberto Fernández Braga Actif 141 / 153 40% 2 13.01.2027 -
Umar Abubakar Famalicao Actif 85 / 77 40% 1 13.01.2027 -
Williams Yikat Aigle Royal de Moungo Actif 77 / 83 40% 1 12.01.2027 -
José Hurtado Bragantino Actif 139 / 115 40% 1 10.01.2027 -
Tidjany Touré Gil Vicente Actif 126 / 131 40% 1 10.01.2027 -
Ben Ahmed Kohili Paradou Actif 96 / 98 40% 1 10.01.2027 -
Vivaldo Semedo Watford Actif 119 / 140 40% 1 09.01.2027 -
Matías Fernández-Pardo Newcastle United Actif 144 / 143 40% 1 09.01.2027 -
Reda Khadra Qarabag Actif 128 / 136 40% 1 07.01.2027 -
Nuno Moreira Vasco da Gama Actif 137 / 121 40% 1 06.01.2027 -
Marquinhos Spartak Moscow Actif 128 / 122 40% 1 05.01.2027 -
Valery Académico de Viseu Actif 121 / 129 40% 1 21.12.2026 -
Fotis Ioannidis Rio Ave Actif 128 / 143 40% 3 29.11.2026 -
André Silva Tondela Actif 136 / 117 40% 2 29.11.2026 -
Fabijan Buntić Farense Actif 120 / 106 40% 1 28.11.2026 -
Michael Cooper Sheffield United Actif 120 / 113 40% 1 28.11.2026 -
Pol Tristán Barnsley Actif 122 / 97 40% 1 27.11.2026 -
Alfonso Pastor Maritimo Actif 91 / 108 40% 3 24.11.2026 -
Patrick Sequeira Casa Pia Actif 133 / 109 40% 4 23.11.2026 -
Héctor Hernández Gil Vicente Actif 129 / 118 40% 2 23.11.2026 -
Vladan Kovačević Norwich City Actif 100 / 129 40% 1 23.11.2026 -
Claudio Spinelli Vasco da Gama Actif 132 / 136 40% 1 23.11.2026 -
Carlos Vinícius Grêmio Actif 141 / 140 40% 1 22.11.2026 -
Caoimhin Kelleher Brentford Actif 158 / 140 40% 4 19.11.2026 -
Vitor Eudes Fluminense Actif 108 / 126 40% 3 19.11.2026 -
Facundo Cambeses Racing Club Actif 130 / 127 40% 2 18.11.2026 -
Robin Roefs Sunderland Actif 140 / 134 40% 2 18.11.2026 -
Matěj Kovář PSV Actif 134 / 130 40% 1 17.11.2026 -
Christian Joel Sánchez Leiria Actif 97 / 112 40% 5 16.11.2026 -
Gabriel Batista Botafogo Actif 120 / 127 40% 3 16.11.2026 -
Kostantis Tzolakis Hull City Actif 137 / 144 40% 1 15.11.2026 -
Francisco Meixedo Feirense Actif 111 / 123 40% 3 14.11.2026 -
João Valido Chaves Actif 98 / 121 40% 1 14.11.2026 -
Tamble Monteiro Rio Ave Actif 125 / 136 40% 2 13.11.2026 -
Jonathan Fischer FC Metz Actif 133 / 132 40% 1 13.11.2026 -
Dean Henderson Crystal Palace Actif 146 / 146 40% 1 13.11.2026 -
Lucas Cañizares Tondela Actif 94 / 99 40% 1 12.11.2026 -
Víctor Cabezas Union Magdalena Actif 114 / 105 40% 2 10.11.2026 -
Negueba Mirassol Actif 120 / 120 40% 1 10.11.2026 -
Bernardo Fontes Braga Actif 132 / 118 40% 3 08.11.2026 -
Cezary Miszta Rio Ave Actif 112 / 135 40% 6 07.11.2026 -
Hugo Souza Corinthians Actif 148 / 144 40% 3 07.11.2026 -
Geny Sporting CP Actif 159 / 129 40% 1 07.11.2026 -
Facundo Colidio Vasco da Gama Actif 128 / 124 40% 1 05.11.2026 -
Alejandro Melo Cibalia Actif 112 / 97 40% 1 03.11.2026 -
Adriel Torreense Actif 131 / 131 40% 4 01.11.2026 -
Lautaro Petruchi Gimnasia y Esgrima Actif 118 / 108 40% 1 01.11.2026 -
Nicolás Sumavil Platense Actif 114 / 125 40% 1 31.10.2026 -
Beau Reus Waasland-Beveren Actif 119 / 140 40% 3 30.10.2026 -
Manuel Baldé Asante Kotoko Actif 112 / 93 40% 1 29.10.2026 -
Esteban Glellel Quilmes Actif 109 / 121 40% 2 28.10.2026 -
Drake Callender Minnesota United FC Actif 137 / 128 40% 1 27.10.2026 -
Grégoire Coudert Burnley Actif 131 / 135 40% 1 27.10.2026 -
Thomas De Bruyne Mouscron Actif 140 / 111 40% 1 26.10.2026 -
Vitor Hugo Lusitânia Lourosa Actif 104 / 115 40% 2 25.10.2026 -
Antonio Gomis Vizela Actif 110 / 120 40% 2 24.10.2026 -
Erick Reyes Toluca Actif 140 / 143 40% 2 23.10.2026 -
Matheus Mendes Alverca Actif 135 / 108 40% 5 23.10.2026 -
Hugo Cuypers Monterrey Actif 117 / 111 40% 1 22.10.2026 -
Nicolás Cordero Aldosivi Actif 115 / 116 40% 1 22.10.2026 -
Thiago Couto São Paulo Actif 107 / 105 40% 1 22.10.2026 -
Carlos Moreno Pachuca Actif 119 / 122 40% 1 20.10.2026 -
Juan Muñoz Leiria Actif 124 / 122 40% 1 17.10.2026 -
Eric Ramires Bragantino Actif 130 / 138 40% 1 17.10.2026 -
Zé Leite Leixões Actif 101 / 108 40% 1 17.10.2026 -
Emiliano González Almagro Actif 121 / 105 40% 3 14.10.2026 -
Jamie Cumming Oxford United Actif 133 / 103 40% 1 14.10.2026 -
Jacob Widell Zetterström Derby County Actif 131 / 142 40% 1 13.10.2026 -
Ramiro Ruiz Rodríguez Atlético Tucumán Actif 127 / 117 40% 1 13.10.2026 -
André Clovis Leiria Actif 103 / 101 40% 1 11.10.2026 -
Juan Soriano Académico de Viseu Actif 131 / 141 40% 1 11.10.2026 -
Arthur Cabral Botafogo Actif 123 / 128 40% 1 09.10.2026 -
Ignacio de Arruabarrena Arouca Actif 113 / 126 40% 2 07.10.2026 -
Lazar Carević Famalicao Actif 141 / 114 40% 2 06.10.2026 -
Mateo Cassierra Atlético Mineiro Actif 124 / 120 40% 1 06.10.2026 -
Daniel Iversen Preston Actif 138 / 128 40% 1 04.10.2026 -
Sead Hakšabanović Malmo FF Actif 113 / 106 40% 1 04.10.2026 -
Kévin Denkey FC Cincinnati Actif 116 / 131 40% 1 03.10.2026 -
Will Mannion Charlton Athletic Actif 106 / 94 40% 2 01.10.2026 -
Felipe Parra Envigado Actif 132 / 126 40% 1 30.09.2026 -
Francisco Salerno Defensores Unidos Actif 107 / 102 40% 1 29.09.2026 -
Sébastien Cibois Portimonense Actif 103 / 110 40% 2 27.09.2026 -
Rodrigo Castillo Fluminense Actif 116 / 118 40% 1 26.09.2026 -
Luis Ingolotti Atlético Tucumán Actif 131 / 132 40% 1 23.09.2026 -
Luka Gavran Toronto FC Actif 105 / 124 40% 1 19.09.2026 -
Vangelis Pavlidis Twente Actif 141 / 141 40% 2 18.09.2026 -
August Priske Birmingham Actif 114 / 134 40% 1 18.09.2026 -
João Gonçalves Felgueiras Actif 105 / 96 40% 2 17.09.2026 -
Matt Freese New York City Actif 128 / 116 40% 1 14.09.2026 -
Andrés Gudiño Cruz Azul Actif 127 / 116 40% 1 13.09.2026 -
Gabriel Jesus Barcelona Actif 160 / 160 40% 2 12.09.2026 -
Patrick Schulte Columbus Crew Actif 124 / 134 40% 1 12.09.2026 -
Dejan Joveljić Seattle Sounders Actif 116 / 116 40% 1 10.09.2026 -
Alexander Nübel Besiktas Actif 141 / 137 40% 1 08.09.2026 -
Jhojan Julio Queretaro Actif 106 / 129 40% 1 07.09.2026 -
Max O'Leary West Bromwich Albion Actif 119 / 135 40% 1 07.09.2026 -
James Trafford Leeds United Actif 131 / 132 40% 2 30.08.2026 -
Antony Alonso Deportivo Riestra Actif 111 / 117 40% 1 30.08.2026 -
Andrew Flamengo Actif 117 / 134 40% 1 25.08.2026 -
Tomoki Hayakawa Kashima Antlers Actif 142 / 130 40% 1 24.08.2026 -
Nicolas Schmid Portsmouth Actif 102 / 125 40% 1 24.08.2026 -
Henrique Araújo Casa Pia Actif 137 / 111 40% 1 24.08.2026 -
Breel Embolo Atlanta United FC Actif 141 / 141 40% 1 20.08.2026 -
Romelu Castagne KV Oostende Actif 144 / 124 40% 1 17.08.2026 -
Dayne St. Clair Inter Miami CF Actif 118 / 132 40% 1 17.08.2026 -
Radek Vítek Middlesbrough Actif 110 / 120 40% 1 16.08.2026 -
Jakob Tånnander Farense Actif 98 / 111 40% 1 15.08.2026 -
Dudu Estrela da Amadora Actif 104 / 123 40% 1 13.08.2026 -
Matvey Safonov Paris Saint-Germain Actif 131 / 165 40% 1 11.08.2026 -
Thauan Lara Portimonense Actif 119 / 99 40% 1 08.08.2026 -
Gonçalo Inácio Sporting CP Actif 159 / 158 40% 1 08.08.2026 -
Bright Arrey-Mbi Braga Actif 144 / 117 40% 1 05.08.2026 -
Miguel Nóbrega Vitoria Guimaraes Actif 128 / 129 40% 1 05.08.2026 -
Fernando Tapia Club America Actif 142 / 110 40% 1 04.08.2026 -
Alejandro Balde Barcelona Actif 171 / 144 40% 1 02.08.2026 -
Georginio Rutter Brighton Actif 137 / 157 40% 1 01.08.2026 -
Troy Parrott Betis Actif 121 / 144 40% 1 01.08.2026 -